sensor_id;sensor_type;location;lat;lon;timestamp;pressure;altitude;pressure_sealevel;temperature;humidity
35551;BME280;21655;46.056;13.616;2023-07-31T00:01:52;100131.06;;;21.40;100.00
35551;BME280;21655;46.056;13.616;2023-07-31T00:04:18;100130.63;;;21.31;100.00
35551;BME280;21655;46.056;13.616;2023-07-31T00:06:43;100134.06;;;21.33;100.00
35551;BME280;21655;46.056;13.616;2023-07-31T00:09:08;100134.56;;;21.30;100.00
35551;BME280;21655;46.056;13.616;2023-07-31T00:11:34;100125.00;;;21.31;100.00
35551;BME280;21655;46.056;13.616;2023-07-31T00:13:59;100128.91;;;21.30;100.00
35551;BME280;21655;46.056;13.616;2023-07-31T00:16:25;100135.41;;;21.31;100.00
35551;BME280;21655;46.056;13.616;2023-07-31T00:18:51;100144.75;;;21.31;100.00
35551;BME280;21655;46.056;13.616;2023-07-31T00:21:16;100136.88;;;21.33;100.00
35551;BME280;21655;46.056;13.616;2023-07-31T00:23:42;100133.84;;;21.23;100.00
35551;BME280;21655;46.056;13.616;2023-07-31T00:26:07;100132.66;;;21.19;100.00
35551;BME280;21655;46.056;13.616;2023-07-31T00:28:32;100134.97;;;21.22;100.00
35551;BME280;21655;46.056;13.616;2023-07-31T00:30:58;100134.13;;;21.22;100.00
35551;BME280;21655;46.056;13.616;2023-07-31T00:33:23;100129.84;;;21.19;100.00
35551;BME280;21655;46.056;13.616;2023-07-31T00:35:49;100128.28;;;21.12;100.00
35551;BME280;21655;46.056;13.616;2023-07-31T00:38:14;100136.06;;;21.05;100.00
35551;BME280;21655;46.056;13.616;2023-07-31T00:40:39;100124.34;;;21.13;100.00
35551;BME280;21655;46.056;13.616;2023-07-31T00:43:05;100126.34;;;21.12;100.00
35551;BME280;21655;46.056;13.616;2023-07-31T00:45:31;100128.06;;;21.13;100.00
35551;BME280;21655;46.056;13.616;2023-07-31T00:47:58;100134.53;;;21.14;100.00
35551;BME280;21655;46.056;13.616;2023-07-31T00:50:24;100132.41;;;21.21;100.00
35551;BME280;21655;46.056;13.616;2023-07-31T00:52:50;100132.66;;;21.19;100.00
35551;BME280;21655;46.056;13.616;2023-07-31T00:55:16;100134.28;;;21.15;100.00
35551;BME280;21655;46.056;13.616;2023-07-31T00:57:42;100139.06;;;21.15;100.00
35551;BME280;21655;46.056;13.616;2023-07-31T01:00:08;100143.41;;;21.06;100.00
35551;BME280;21655;46.056;13.616;2023-07-31T01:02:34;100153.00;;;21.05;100.00
35551;BME280;21655;46.056;13.616;2023-07-31T01:05:01;100150.41;;;21.03;100.00
35551;BME280;21655;46.056;13.616;2023-07-31T01:07:47;100159.63;;;20.99;100.00
35551;BME280;21655;46.056;13.616;2023-07-31T01:10:23;100155.22;;;21.03;100.00
35551;BME280;21655;46.056;13.616;2023-07-31T01:12:53;100161.69;;;21.03;100.00
35551;BME280;21655;46.056;13.616;2023-07-31T01:15:18;100155.44;;;21.02;100.00
35551;BME280;21655;46.056;13.616;2023-07-31T01:17:44;100159.03;;;20.97;100.00
35551;BME280;21655;46.056;13.616;2023-07-31T01:20:20;100160.66;;;20.93;100.00
35551;BME280;21655;46.056;13.616;2023-07-31T01:23:13;100155.00;;;20.93;100.00
35551;BME280;21655;46.056;13.616;2023-07-31T01:26:01;100153.81;;;20.89;100.00
35551;BME280;21655;46.056;13.616;2023-07-31T01:28:45;100156.88;;;20.88;100.00
35551;BME280;21655;46.056;13.616;2023-07-31T01:31:14;100166.22;;;20.77;100.00
35551;BME280;21655;46.056;13.616;2023-07-31T01:33:41;100171.22;;;20.75;100.00
35551;BME280;21655;46.056;13.616;2023-07-31T01:36:07;100166.44;;;20.75;100.00
35551;BME280;21655;46.056;13.616;2023-07-31T01:38:33;100169.41;;;20.69;100.00
35551;BME280;21655;46.056;13.616;2023-07-31T01:40:58;100175.28;;;20.67;100.00
35551;BME280;21655;46.056;13.616;2023-07-31T01:43:24;100180.31;;;20.65;100.00
35551;BME280;21655;46.056;13.616;2023-07-31T01:45:49;100184.09;;;20.71;100.00
35551;BME280;21655;46.056;13.616;2023-07-31T01:48:15;100182.28;;;20.65;100.00
35551;BME280;21655;46.056;13.616;2023-07-31T01:50:40;100191.59;;;20.65;100.00
35551;BME280;21655;46.056;13.616;2023-07-31T01:53:06;100182.34;;;20.53;100.00
35551;BME280;21655;46.056;13.616;2023-07-31T01:55:31;100184.78;;;20.50;100.00
35551;BME280;21655;46.056;13.616;2023-07-31T01:57:56;100180.63;;;20.52;100.00
35551;BME280;21655;46.056;13.616;2023-07-31T02:00:22;100189.91;;;20.53;100.00
35551;BME280;21655;46.056;13.616;2023-07-31T02:02:47;100187.69;;;20.55;100.00
35551;BME280;21655;46.056;13.616;2023-07-31T02:05:13;100187.59;;;20.50;100.00
35551;BME280;21655;46.056;13.616;2023-07-31T02:07:38;100184.19;;;20.48;100.00
35551;BME280;21655;46.056;13.616;2023-07-31T02:10:04;100193.97;;;20.45;100.00
35551;BME280;21655;46.056;13.616;2023-07-31T02:12:29;100194.94;;;20.51;100.00
35551;BME280;21655;46.056;13.616;2023-07-31T02:14:58;100200.59;;;20.51;100.00
35551;BME280;21655;46.056;13.616;2023-07-31T02:17:24;100200.06;;;20.54;100.00
35551;BME280;21655;46.056;13.616;2023-07-31T02:19:49;100201.44;;;20.51;100.00
35551;BME280;21655;46.056;13.616;2023-07-31T02:22:15;100198.63;;;20.51;100.00
35551;BME280;21655;46.056;13.616;2023-07-31T02:24:40;100207.56;;;20.48;100.00
35551;BME280;21655;46.056;13.616;2023-07-31T02:27:06;100203.63;;;20.49;100.00
35551;BME280;21655;46.056;13.616;2023-07-31T02:29:31;100205.47;;;20.55;100.00
35551;BME280;21655;46.056;13.616;2023-07-31T02:31:57;100205.72;;;20.54;100.00
35551;BME280;21655;46.056;13.616;2023-07-31T02:34:22;100205.72;;;20.54;100.00
35551;BME280;21655;46.056;13.616;2023-07-31T02:36:47;100202.66;;;20.55;100.00
35551;BME280;21655;46.056;13.616;2023-07-31T02:39:13;100195.03;;;20.56;100.00
35551;BME280;21655;46.056;13.616;2023-07-31T02:41:38;100199.25;;;20.53;100.00
35551;BME280;21655;46.056;13.616;2023-07-31T02:44:04;100197.41;;;20.47;100.00
35551;BME280;21655;46.056;13.616;2023-07-31T02:46:29;100192.41;;;20.38;100.00
35551;BME280;21655;46.056;13.616;2023-07-31T02:48:54;100194.00;;;20.34;100.00
35551;BME280;21655;46.056;13.616;2023-07-31T02:51:20;100192.91;;;20.35;100.00
35551;BME280;21655;46.056;13.616;2023-07-31T02:53:47;100187.88;;;20.37;100.00
35551;BME280;21655;46.056;13.616;2023-07-31T02:56:13;100198.28;;;20.36;100.00
35551;BME280;21655;46.056;13.616;2023-07-31T02:58:38;100191.41;;;20.32;100.00
35551;BME280;21655;46.056;13.616;2023-07-31T03:01:04;100191.53;;;20.26;100.00
35551;BME280;21655;46.056;13.616;2023-07-31T03:03:29;100191.81;;;20.24;100.00
35551;BME280;21655;46.056;13.616;2023-07-31T03:05:54;100197.69;;;20.23;100.00
35551;BME280;21655;46.056;13.616;2023-07-31T03:08:20;100187.78;;;20.20;100.00
35551;BME280;21655;46.056;13.616;2023-07-31T03:10:46;100179.19;;;20.15;100.00
35551;BME280;21655;46.056;13.616;2023-07-31T03:13:11;100180.06;;;20.16;100.00
35551;BME280;21655;46.056;13.616;2023-07-31T03:15:37;100190.22;;;20.17;100.00
35551;BME280;21655;46.056;13.616;2023-07-31T03:18:02;100182.63;;;20.17;100.00
35551;BME280;21655;46.056;13.616;2023-07-31T03:20:28;100183.25;;;20.19;100.00
35551;BME280;21655;46.056;13.616;2023-07-31T03:22:53;100177.00;;;20.06;100.00
35551;BME280;21655;46.056;13.616;2023-07-31T03:25:18;100187.91;;;20.02;100.00
35551;BME280;21655;46.056;13.616;2023-07-31T03:27:44;100188.63;;;19.98;100.00
35551;BME280;21655;46.056;13.616;2023-07-31T03:30:10;100187.50;;;19.99;100.00
35551;BME280;21655;46.056;13.616;2023-07-31T03:32:35;100187.16;;;20.07;100.00
35551;BME280;21655;46.056;13.616;2023-07-31T03:35:00;100188.03;;;20.07;100.00
35551;BME280;21655;46.056;13.616;2023-07-31T03:37:26;100187.91;;;20.14;100.00
35551;BME280;21655;46.056;13.616;2023-07-31T03:39:51;100183.72;;;20.16;100.00
35551;BME280;21655;46.056;13.616;2023-07-31T03:42:17;100177.38;;;20.09;100.00
35551;BME280;21655;46.056;13.616;2023-07-31T03:44:42;100189.50;;;20.10;100.00
35551;BME280;21655;46.056;13.616;2023-07-31T03:47:08;100189.25;;;20.11;100.00
35551;BME280;21655;46.056;13.616;2023-07-31T03:49:33;100183.75;;;20.05;100.00
35551;BME280;21655;46.056;13.616;2023-07-31T03:51:58;100184.69;;;19.99;100.00
35551;BME280;21655;46.056;13.616;2023-07-31T03:54:24;100197.66;;;20.00;100.00
35551;BME280;21655;46.056;13.616;2023-07-31T03:56:49;100187.44;;;20.05;100.00
35551;BME280;21655;46.056;13.616;2023-07-31T03:59:15;100184.13;;;20.08;100.00
35551;BME280;21655;46.056;13.616;2023-07-31T04:01:40;100183.50;;;20.18;100.00
35551;BME280;21655;46.056;13.616;2023-07-31T04:04:05;100191.44;;;20.21;100.00
35551;BME280;21655;46.056;13.616;2023-07-31T04:06:31;100190.72;;;20.25;100.00
35551;BME280;21655;46.056;13.616;2023-07-31T04:08:56;100195.34;;;20.31;100.00
35551;BME280;21655;46.056;13.616;2023-07-31T04:11:22;100208.19;;;20.39;100.00
35551;BME280;21655;46.056;13.616;2023-07-31T04:13:47;100196.78;;;20.45;100.00
35551;BME280;21655;46.056;13.616;2023-07-31T04:16:13;100207.31;;;20.50;100.00
35551;BME280;21655;46.056;13.616;2023-07-31T04:18:38;100197.25;;;20.54;100.00
35551;BME280;21655;46.056;13.616;2023-07-31T04:21:04;100198.72;;;20.56;100.00
35551;BME280;21655;46.056;13.616;2023-07-31T04:23:29;100188.22;;;20.52;100.00
35551;BME280;21655;46.056;13.616;2023-07-31T04:25:55;100192.50;;;20.54;100.00
35551;BME280;21655;46.056;13.616;2023-07-31T04:28:21;100196.16;;;20.55;100.00
35551;BME280;21655;46.056;13.616;2023-07-31T04:30:46;100192.38;;;20.61;100.00
35551;BME280;21655;46.056;13.616;2023-07-31T04:33:12;100193.44;;;20.71;100.00
35551;BME280;21655;46.056;13.616;2023-07-31T04:35:37;100194.41;;;20.77;100.00
35551;BME280;21655;46.056;13.616;2023-07-31T04:38:03;100199.84;;;20.83;100.00
35551;BME280;21655;46.056;13.616;2023-07-31T04:40:28;100183.44;;;20.92;100.00
35551;BME280;21655;46.056;13.616;2023-07-31T04:42:54;100187.78;;;21.10;100.00
35551;BME280;21655;46.056;13.616;2023-07-31T04:45:19;100183.63;;;21.29;100.00
35551;BME280;21655;46.056;13.616;2023-07-31T04:47:44;100186.63;;;21.39;100.00
35551;BME280;21655;46.056;13.616;2023-07-31T04:50:10;100185.63;;;21.45;100.00
35551;BME280;21655;46.056;13.616;2023-07-31T04:52:35;100191.06;;;21.63;100.00
35551;BME280;21655;46.056;13.616;2023-07-31T04:55:01;100190.94;;;21.58;100.00
35551;BME280;21655;46.056;13.616;2023-07-31T04:57:26;100192.38;;;21.61;100.00
35551;BME280;21655;46.056;13.616;2023-07-31T04:59:52;100192.31;;;21.56;100.00
35551;BME280;21655;46.056;13.616;2023-07-31T05:02:17;100194.78;;;21.52;100.00
35551;BME280;21655;46.056;13.616;2023-07-31T05:04:42;100197.50;;;21.47;100.00
35551;BME280;21655;46.056;13.616;2023-07-31T05:07:08;100195.06;;;21.67;100.00
35551;BME280;21655;46.056;13.616;2023-07-31T05:09:33;100207.94;;;22.29;100.00
35551;BME280;21655;46.056;13.616;2023-07-31T05:11:59;100200.78;;;22.81;100.00
35551;BME280;21655;46.056;13.616;2023-07-31T05:14:25;100184.72;;;23.08;100.00
35551;BME280;21655;46.056;13.616;2023-07-31T05:16:51;100184.53;;;23.14;100.00
35551;BME280;21655;46.056;13.616;2023-07-31T05:19:17;100190.03;;;23.52;100.00
35551;BME280;21655;46.056;13.616;2023-07-31T05:21:42;100197.63;;;23.78;100.00
35551;BME280;21655;46.056;13.616;2023-07-31T05:24:07;100195.84;;;23.94;100.00
35551;BME280;21655;46.056;13.616;2023-07-31T05:26:33;100188.69;;;24.23;100.00
35551;BME280;21655;46.056;13.616;2023-07-31T05:28:58;100184.84;;;24.44;100.00
35551;BME280;21655;46.056;13.616;2023-07-31T05:31:24;100188.13;;;24.67;100.00
35551;BME280;21655;46.056;13.616;2023-07-31T05:33:50;100185.31;;;24.77;100.00
35551;BME280;21655;46.056;13.616;2023-07-31T05:36:16;100185.75;;;25.06;100.00
35551;BME280;21655;46.056;13.616;2023-07-31T05:38:42;100186.47;;;25.57;100.00
35551;BME280;21655;46.056;13.616;2023-07-31T05:41:09;100185.38;;;25.88;100.00
35551;BME280;21655;46.056;13.616;2023-07-31T05:43:35;100177.41;;;26.10;100.00
35551;BME280;21655;46.056;13.616;2023-07-31T05:46:00;100186.19;;;26.24;100.00
35551;BME280;21655;46.056;13.616;2023-07-31T05:48:26;100180.78;;;26.32;100.00
35551;BME280;21655;46.056;13.616;2023-07-31T05:50:52;100180.50;;;26.34;100.00
35551;BME280;21655;46.056;13.616;2023-07-31T05:53:17;100175.34;;;26.41;100.00
35551;BME280;21655;46.056;13.616;2023-07-31T05:55:43;100183.03;;;26.45;100.00
35551;BME280;21655;46.056;13.616;2023-07-31T05:58:08;100169.91;;;26.74;100.00
35551;BME280;21655;46.056;13.616;2023-07-31T06:00:33;100175.25;;;26.86;100.00
35551;BME280;21655;46.056;13.616;2023-07-31T06:02:59;100170.31;;;27.11;100.00
35551;BME280;21655;46.056;13.616;2023-07-31T06:05:24;100168.50;;;27.35;100.00
35551;BME280;21655;46.056;13.616;2023-07-31T06:07:51;100170.34;;;27.54;100.00
35551;BME280;21655;46.056;13.616;2023-07-31T06:10:16;100164.34;;;27.56;100.00
35551;BME280;21655;46.056;13.616;2023-07-31T06:12:42;100167.94;;;27.76;100.00
35551;BME280;21655;46.056;13.616;2023-07-31T06:15:07;100166.91;;;27.96;100.00
35551;BME280;21655;46.056;13.616;2023-07-31T06:17:33;100156.78;;;28.13;100.00
35551;BME280;21655;46.056;13.616;2023-07-31T06:19:58;100159.16;;;28.35;100.00
35551;BME280;21655;46.056;13.616;2023-07-31T06:22:23;100167.34;;;28.65;100.00
35551;BME280;21655;46.056;13.616;2023-07-31T06:24:49;100165.44;;;28.84;100.00
35551;BME280;21655;46.056;13.616;2023-07-31T06:27:14;100162.44;;;28.70;100.00
35551;BME280;21655;46.056;13.616;2023-07-31T06:29:40;100170.75;;;28.95;100.00
35551;BME280;21655;46.056;13.616;2023-07-31T06:32:06;100156.56;;;29.09;100.00
35551;BME280;21655;46.056;13.616;2023-07-31T06:34:32;100165.59;;;29.16;100.00
35551;BME280;21655;46.056;13.616;2023-07-31T06:36:57;100158.38;;;29.41;100.00
35551;BME280;21655;46.056;13.616;2023-07-31T06:39:22;100155.28;;;29.93;100.00
35551;BME280;21655;46.056;13.616;2023-07-31T06:41:48;100154.75;;;30.10;100.00
35551;BME280;21655;46.056;13.616;2023-07-31T06:44:13;100161.84;;;30.12;100.00
35551;BME280;21655;46.056;13.616;2023-07-31T06:46:39;100171.28;;;30.13;100.00
35551;BME280;21655;46.056;13.616;2023-07-31T06:49:04;100161.06;;;30.39;100.00
35551;BME280;21655;46.056;13.616;2023-07-31T06:51:29;100154.59;;;30.33;100.00
35551;BME280;21655;46.056;13.616;2023-07-31T06:53:57;100163.00;;;30.11;100.00
35551;BME280;21655;46.056;13.616;2023-07-31T06:56:22;100160.47;;;29.73;100.00
35551;BME280;21655;46.056;13.616;2023-07-31T06:58:48;100158.38;;;29.78;100.00
35551;BME280;21655;46.056;13.616;2023-07-31T07:01:13;100160.47;;;29.73;100.00
35551;BME280;21655;46.056;13.616;2023-07-31T07:03:38;100153.38;;;29.70;100.00
35551;BME280;21655;46.056;13.616;2023-07-31T07:06:04;100157.59;;;29.91;100.00
35551;BME280;21655;46.056;13.616;2023-07-31T07:08:29;100173.69;;;30.06;100.00
35551;BME280;21655;46.056;13.616;2023-07-31T07:10:55;100147.94;;;30.06;100.00
35551;BME280;21655;46.056;13.616;2023-07-31T07:13:21;100153.63;;;30.24;100.00
35551;BME280;21655;46.056;13.616;2023-07-31T07:15:50;100152.00;;;30.18;100.00
35551;BME280;21655;46.056;13.616;2023-07-31T07:18:16;100158.06;;;30.30;100.00
35551;BME280;21655;46.056;13.616;2023-07-31T07:20:52;100150.69;;;30.43;100.00
35551;BME280;21655;46.056;13.616;2023-07-31T07:23:19;100148.94;;;30.28;100.00
35551;BME280;21655;46.056;13.616;2023-07-31T07:25:46;100147.50;;;30.44;100.00
35551;BME280;21655;46.056;13.616;2023-07-31T07:28:12;100159.06;;;30.53;100.00
35551;BME280;21655;46.056;13.616;2023-07-31T07:30:38;100153.41;;;31.07;100.00
35551;BME280;21655;46.056;13.616;2023-07-31T07:33:04;100147.91;;;31.24;100.00
35551;BME280;21655;46.056;13.616;2023-07-31T07:35:30;100156.25;;;31.47;100.00
35551;BME280;21655;46.056;13.616;2023-07-31T07:37:55;100156.16;;;31.38;100.00
35551;BME280;21655;46.056;13.616;2023-07-31T07:40:22;100142.75;;;31.47;100.00
35551;BME280;21655;46.056;13.616;2023-07-31T07:42:47;100151.22;;;31.66;99.27
35551;BME280;21655;46.056;13.616;2023-07-31T07:45:12;100147.66;;;32.04;96.99
35551;BME280;21655;46.056;13.616;2023-07-31T07:47:40;100157.81;;;32.54;90.21
35551;BME280;21655;46.056;13.616;2023-07-31T07:50:06;100149.22;;;32.32;97.13
35551;BME280;21655;46.056;13.616;2023-07-31T07:52:32;100161.13;;;32.70;92.79
35551;BME280;21655;46.056;13.616;2023-07-31T07:54:57;100154.47;;;33.39;90.75
35551;BME280;21655;46.056;13.616;2023-07-31T07:57:23;100147.72;;;33.51;84.45
35551;BME280;21655;46.056;13.616;2023-07-31T07:59:48;100158.63;;;33.88;80.05
35551;BME280;21655;46.056;13.616;2023-07-31T08:02:13;100156.75;;;34.43;80.56
35551;BME280;21655;46.056;13.616;2023-07-31T08:04:39;100165.50;;;33.62;74.57
35551;BME280;21655;46.056;13.616;2023-07-31T08:07:04;100165.00;;;33.51;81.36
35551;BME280;21655;46.056;13.616;2023-07-31T08:09:30;100165.34;;;33.67;77.23
35551;BME280;21655;46.056;13.616;2023-07-31T08:11:56;100162.84;;;33.74;86.33
35551;BME280;21655;46.056;13.616;2023-07-31T08:14:27;100162.81;;;33.57;79.47
35551;BME280;21655;46.056;13.616;2023-07-31T08:16:52;100162.13;;;33.60;77.03
35551;BME280;21655;46.056;13.616;2023-07-31T08:19:17;100161.00;;;34.29;77.82
35551;BME280;21655;46.056;13.616;2023-07-31T08:21:43;100151.25;;;34.59;71.33
35551;BME280;21655;46.056;13.616;2023-07-31T08:24:08;100157.38;;;34.49;69.00
35551;BME280;21655;46.056;13.616;2023-07-31T08:26:34;100169.97;;;33.93;69.81
35551;BME280;21655;46.056;13.616;2023-07-31T08:28:59;100166.25;;;34.27;67.23
35551;BME280;21655;46.056;13.616;2023-07-31T08:31:25;100166.38;;;35.10;70.54
35551;BME280;21655;46.056;13.616;2023-07-31T08:33:50;100155.06;;;36.04;62.13
35551;BME280;21655;46.056;13.616;2023-07-31T08:36:15;100164.97;;;35.74;62.98
35551;BME280;21655;46.056;13.616;2023-07-31T08:38:41;100155.56;;;35.65;56.75
35551;BME280;21655;46.056;13.616;2023-07-31T08:41:06;100157.88;;;35.71;63.56
35551;BME280;21655;46.056;13.616;2023-07-31T08:43:32;100155.06;;;35.34;62.52
35551;BME280;21655;46.056;13.616;2023-07-31T08:45:57;100155.66;;;35.19;61.21
35551;BME280;21655;46.056;13.616;2023-07-31T08:48:23;100145.75;;;34.11;67.48
35551;BME280;21655;46.056;13.616;2023-07-31T08:50:51;100162.50;;;34.01;70.08
35551;BME280;21655;46.056;13.616;2023-07-31T08:53:17;100153.53;;;33.85;67.03
35551;BME280;21655;46.056;13.616;2023-07-31T08:55:42;100142.66;;;34.50;63.64
35551;BME280;21655;46.056;13.616;2023-07-31T08:58:09;100151.34;;;34.25;62.92
35551;BME280;21655;46.056;13.616;2023-07-31T09:00:37;100144.03;;;34.02;62.74
35551;BME280;21655;46.056;13.616;2023-07-31T09:03:17;100146.94;;;33.85;64.76
35551;BME280;21655;46.056;13.616;2023-07-31T09:05:44;100151.34;;;34.08;68.30
35551;BME280;21655;46.056;13.616;2023-07-31T09:08:15;100145.91;;;34.23;70.90
35551;BME280;21655;46.056;13.616;2023-07-31T09:10:43;100138.81;;;33.95;68.13
35551;BME280;21655;46.056;13.616;2023-07-31T09:13:11;100143.84;;;33.56;73.27
35551;BME280;21655;46.056;13.616;2023-07-31T09:15:37;100147.41;;;33.06;82.03
35551;BME280;21655;46.056;13.616;2023-07-31T09:18:04;100146.09;;;32.42;92.48
35551;BME280;21655;46.056;13.616;2023-07-31T09:20:30;100134.72;;;32.15;98.24
35551;BME280;21655;46.056;13.616;2023-07-31T09:22:57;100140.34;;;31.63;100.00
35551;BME280;21655;46.056;13.616;2023-07-31T09:25:30;100139.09;;;31.07;100.00
35551;BME280;21655;46.056;13.616;2023-07-31T09:28:09;100129.31;;;30.81;100.00
35551;BME280;21655;46.056;13.616;2023-07-31T09:30:49;100132.72;;;30.69;100.00
35551;BME280;21655;46.056;13.616;2023-07-31T09:33:15;100147.97;;;30.78;100.00
35551;BME280;21655;46.056;13.616;2023-07-31T09:35:41;100137.16;;;30.75;100.00
35551;BME280;21655;46.056;13.616;2023-07-31T09:38:09;100146.72;;;30.84;100.00
35551;BME280;21655;46.056;13.616;2023-07-31T09:40:36;100133.56;;;30.83;100.00
35551;BME280;21655;46.056;13.616;2023-07-31T09:43:06;100138.56;;;31.18;100.00
35551;BME280;21655;46.056;13.616;2023-07-31T09:45:37;100139.69;;;31.79;100.00
35551;BME280;21655;46.056;13.616;2023-07-31T09:48:06;100146.09;;;32.73;100.00
35551;BME280;21655;46.056;13.616;2023-07-31T09:50:37;100142.84;;;33.05;93.24
35551;BME280;21655;46.056;13.616;2023-07-31T09:53:03;100139.44;;;33.67;89.97
35551;BME280;21655;46.056;13.616;2023-07-31T09:55:29;100139.66;;;33.87;87.87
35551;BME280;21655;46.056;13.616;2023-07-31T09:57:56;100134.16;;;34.71;84.38
35551;BME280;21655;46.056;13.616;2023-07-31T10:00:23;100136.38;;;35.03;70.36
35551;BME280;21655;46.056;13.616;2023-07-31T10:02:50;100129.50;;;34.87;76.16
35551;BME280;21655;46.056;13.616;2023-07-31T10:05:16;100126.25;;;34.08;75.98
35551;BME280;21655;46.056;13.616;2023-07-31T10:07:52;100127.81;;;33.72;76.76
35551;BME280;21655;46.056;13.616;2023-07-31T10:10:20;100128.34;;;32.71;83.04
35551;BME280;21655;46.056;13.616;2023-07-31T10:12:46;100123.28;;;31.93;86.01
35551;BME280;21655;46.056;13.616;2023-07-31T10:15:14;100125.28;;;31.93;94.52
35551;BME280;21655;46.056;13.616;2023-07-31T10:17:40;100117.44;;;32.07;90.83
35551;BME280;21655;46.056;13.616;2023-07-31T10:20:06;100119.53;;;32.37;100.00
35551;BME280;21655;46.056;13.616;2023-07-31T10:22:32;100117.06;;;32.00;94.93
35551;BME280;21655;46.056;13.616;2023-07-31T10:25:00;100122.47;;;32.01;97.03
35551;BME280;21655;46.056;13.616;2023-07-31T10:27:26;100128.19;;;32.45;99.18
35551;BME280;21655;46.056;13.616;2023-07-31T10:29:53;100117.06;;;33.30;98.67
35551;BME280;21655;46.056;13.616;2023-07-31T10:32:20;100117.78;;;34.12;90.20
35551;BME280;21655;46.056;13.616;2023-07-31T10:34:47;100106.75;;;35.52;75.73
35551;BME280;21655;46.056;13.616;2023-07-31T10:37:35;100103.53;;;36.26;61.95
35551;BME280;21655;46.056;13.616;2023-07-31T10:40:24;100107.56;;;36.90;58.70
35551;BME280;21655;46.056;13.616;2023-07-31T10:42:54;100100.44;;;36.88;53.89
35551;BME280;21655;46.056;13.616;2023-07-31T10:45:25;100096.00;;;37.26;53.18
35551;BME280;21655;46.056;13.616;2023-07-31T10:48:01;100103.72;;;37.46;53.94
35551;BME280;21655;46.056;13.616;2023-07-31T10:50:27;100106.81;;;36.69;53.35
35551;BME280;21655;46.056;13.616;2023-07-31T10:52:55;100103.78;;;35.60;60.81
35551;BME280;21655;46.056;13.616;2023-07-31T10:55:27;100109.84;;;35.67;64.73
35551;BME280;21655;46.056;13.616;2023-07-31T10:57:53;100102.38;;;35.17;67.75
35551;BME280;21655;46.056;13.616;2023-07-31T11:00:27;100108.34;;;34.66;75.03
35551;BME280;21655;46.056;13.616;2023-07-31T11:02:57;100108.34;;;33.94;84.80
35551;BME280;21655;46.056;13.616;2023-07-31T11:08:17;100105.41;;;33.43;85.65
35551;BME280;21655;46.056;13.616;2023-07-31T11:10:44;100100.34;;;33.66;91.00
35551;BME280;21655;46.056;13.616;2023-07-31T11:13:10;100103.38;;;34.83;78.71
35551;BME280;21655;46.056;13.616;2023-07-31T11:15:35;100112.19;;;35.94;70.54
35551;BME280;21655;46.056;13.616;2023-07-31T11:18:02;100107.91;;;36.77;62.51
35551;BME280;21655;46.056;13.616;2023-07-31T11:20:36;100106.72;;;37.38;54.94
35551;BME280;21655;46.056;13.616;2023-07-31T11:23:07;100100.72;;;37.31;56.56
35551;BME280;21655;46.056;13.616;2023-07-31T11:25:33;100099.59;;;36.75;55.91
35551;BME280;21655;46.056;13.616;2023-07-31T11:28:10;100094.34;;;36.45;54.58
35551;BME280;21655;46.056;13.616;2023-07-31T11:30:37;100087.00;;;36.15;54.12
35551;BME280;21655;46.056;13.616;2023-07-31T11:33:03;100078.22;;;35.91;69.35
35551;BME280;21655;46.056;13.616;2023-07-31T11:35:36;100078.94;;;35.47;58.15
35551;BME280;21655;46.056;13.616;2023-07-31T11:38:07;100070.75;;;35.49;62.00
35551;BME280;21655;46.056;13.616;2023-07-31T11:40:41;100075.88;;;34.94;60.62
35551;BME280;21655;46.056;13.616;2023-07-31T11:43:07;100081.03;;;34.80;71.30
35551;BME280;21655;46.056;13.616;2023-07-31T11:45:33;100064.56;;;34.81;71.68
35551;BME280;21655;46.056;13.616;2023-07-31T11:47:58;100065.53;;;34.47;66.61
35551;BME280;21655;46.056;13.616;2023-07-31T11:50:24;100064.31;;;33.94;70.36
35551;BME280;21655;46.056;13.616;2023-07-31T11:53:00;100064.13;;;33.99;71.78
35551;BME280;21655;46.056;13.616;2023-07-31T11:55:26;100058.00;;;34.09;76.13
35551;BME280;21655;46.056;13.616;2023-07-31T11:57:52;100056.53;;;33.86;68.21
35551;BME280;21655;46.056;13.616;2023-07-31T12:00:19;100062.59;;;33.93;69.83
35551;BME280;21655;46.056;13.616;2023-07-31T12:02:44;100047.53;;;33.53;76.23
35551;BME280;21655;46.056;13.616;2023-07-31T12:05:11;100043.09;;;33.05;83.17
35551;BME280;21655;46.056;13.616;2023-07-31T12:07:51;100042.94;;;33.10;79.83
35551;BME280;21655;46.056;13.616;2023-07-31T12:10:28;100036.38;;;33.27;89.21
35551;BME280;21655;46.056;13.616;2023-07-31T12:15:56;100040.09;;;33.36;96.24
35551;BME280;21655;46.056;13.616;2023-07-31T12:18:27;100026.72;;;33.90;95.16
35551;BME280;21655;46.056;13.616;2023-07-31T12:20:57;100024.84;;;33.60;86.76
35551;BME280;21655;46.056;13.616;2023-07-31T12:23:27;100028.59;;;33.52;82.00
35551;BME280;21655;46.056;13.616;2023-07-31T12:28:29;100017.56;;;33.97;84.20
35551;BME280;21655;46.056;13.616;2023-07-31T12:30:58;100016.59;;;33.50;78.23
35551;BME280;21655;46.056;13.616;2023-07-31T12:33:30;100022.38;;;32.69;82.39
35551;BME280;21655;46.056;13.616;2023-07-31T12:35:56;100019.59;;;32.56;97.16
35551;BME280;21655;46.056;13.616;2023-07-31T12:38:22;100015.69;;;32.13;90.54
35551;BME280;21655;46.056;13.616;2023-07-31T12:40:47;100017.56;;;32.48;88.45